Terminal Aerodrome Forecast
Issued by NWS

Home | Current Version | Previous Version | Graphics & Text | Print | Product List | Glossary On
Versions: 1 2 3 4 5 6 7 8 9 10 11
909
FTUS43 KMPX 212331
TAFRWF
TAF
KRWF 212331Z 2200/2224 03004KT P6SM SCT300
     FM220700 VRB03KT P6SM SKC
     FM221600 27007KT P6SM SKC=

USA.gov is the U.S. government's official web portal to all federal, state and local government web resources and services.